Hickory Hill, Tennessee
Current Conditions -  °F | °C
As of 4:50 PM on Friday 28 Nov 2014 (Local Time) from KOLV Reporting Station
Few Clouds Few Clouds  
Wind Chill: 45°   Ceiling: Unl
Heat Index: 48°   Visibility: 10mi
Dew Point: 28°   Wind: 8mph
Humidity: 46%   Direction: 160°SSE
Pressure: 30.16"   Gusts: NA
Location:  35.0258°N, 89.7862°W
Report Text: KOLV 282250Z 16007KT 10SM FEW250 09/M02 A3016
Loading
Personal Weather Stations






























Interactive Weather Map New forecast layout! Learn more

10-Day Weather Forecast

Advertisements
Track Severe Weather on mobile